This is the latest recevied weather packets stored in our database for station/object DN9EM-1. If no packets are shown the sender has not sent any weather packets the latest 10 day(s).
| Time | Temp. | Humidity | Pressure | Rain* | Wind** | Luminosity | Snow |
|---|---|---|---|---|---|---|---|
| 1777911965 | 15° C | 70% | 1015 hPa | 0 mm | - | - | - |
| 1777911363 | 15° C | 69% | 1014.9 hPa | 0 mm | - | - | - |
| 1777910760 | 15.56° C | 69% | 1015 hPa | 0 mm | - | - | - |
| 1777910158 | 15.56° C | 68% | 1015.1 hPa | 0 mm | - | - | - |
| 1777909555 | 15.56° C | 68% | 1015.1 hPa | 0 mm | - | - | - |
| 1777908953 | 15.56° C | 68% | 1015 hPa | 0 mm | - | - | - |
| 1777908350 | 16.11° C | 68% | 1015 hPa | 0 mm | - | - | - |
| 1777907747 | 16.11° C | 69% | 1015.2 hPa | 0 mm | - | - | - |
| 1777907145 | 15.56° C | 69% | 1015.2 hPa | 0 mm | - | - | - |
| 1777906542 | 15.56° C | 70% | 1015.2 hPa | 0 mm | - | - | - |
| 1777905940 | 15.56° C | 70% | 1015.3 hPa | 0 mm | - | - | - |
| 1777905337 | 16.11° C | 67% | 1015.1 hPa | 0 mm | - | - | - |
| 1777904734 | 16.11° C | 66% | 1015.4 hPa | 0 mm | - | - | - |
| 1777904132 | 16.11° C | 65% | 1015.4 hPa | 0 mm | - | - | - |
| 1777903529 | 16.11° C | 67% | 1015.5 hPa | 0 mm | - | - | - |
| 1777902927 | 16.11° C | 66% | 1015.6 hPa | 0 mm | - | - | - |
| 1777902324 | 16.11° C | 66% | 1015.5 hPa | 0 mm | - | - | - |
| 1777901722 | 16.11° C | 67% | 1015.6 hPa | 0 mm | - | - | - |
| 1777901119 | 16.11° C | 67% | 1015.7 hPa | 0 mm | - | - | - |
| 1777900516 | 16.11° C | 67% | 1015.6 hPa | 0 mm | - | - | - |
| 1777899974 | 16.67° C | 66% | 1015.6 hPa | 0 mm | - | - | - |
| 1777899371 | 16.11° C | 68% | 1015.6 hPa | 0 mm | - | - | - |
| 1777898769 | 15° C | 70% | 1015.6 hPa | 0 mm | - | - | - |
| 1777898166 | 15.56° C | 69% | 1015.6 hPa | 0 mm | - | - | - |
| 1777897564 | 16.67° C | 67% | 1015.8 hPa | 0 mm | - | - | - |
* Rain latest hour (hover to see other rain measurements)
** Current wind speed in m/s (hover to see current wind gust speed)